sensor_id;sensor_type;location;lat;lon;timestamp;temperature;humidity
26053;DHT22;13826;51.186;4.450;2023-02-28T00:00:22;2.10;24.90
26053;DHT22;13826;51.186;4.450;2023-02-28T00:02:48;2.10;25.30
26053;DHT22;13826;51.186;4.450;2023-02-28T00:05:15;2.10;23.70
26053;DHT22;13826;51.186;4.450;2023-02-28T00:07:41;2.10;24.20
26053;DHT22;13826;51.186;4.450;2023-02-28T00:10:08;2.10;25.50
26053;DHT22;13826;51.186;4.450;2023-02-28T00:12:34;2.10;25.20
26053;DHT22;13826;51.186;4.450;2023-02-28T00:15:00;2.10;26.30
26053;DHT22;13826;51.186;4.450;2023-02-28T00:17:26;2.10;26.60
26053;DHT22;13826;51.186;4.450;2023-02-28T00:19:52;2.00;27.60
26053;DHT22;13826;51.186;4.450;2023-02-28T00:22:18;2.00;30.00
26053;DHT22;13826;51.186;4.450;2023-02-28T00:24:44;1.90;32.80
26053;DHT22;13826;51.186;4.450;2023-02-28T00:27:10;2.00;34.00
26053;DHT22;13826;51.186;4.450;2023-02-28T00:29:35;2.00;30.60
26053;DHT22;13826;51.186;4.450;2023-02-28T00:32:01;2.00;31.50
26053;DHT22;13826;51.186;4.450;2023-02-28T00:34:27;1.90;36.00
26053;DHT22;13826;51.186;4.450;2023-02-28T00:36:52;1.80;38.40
26053;DHT22;13826;51.186;4.450;2023-02-28T00:39:18;1.80;40.40
26053;DHT22;13826;51.186;4.450;2023-02-28T00:41:43;1.90;39.40
26053;DHT22;13826;51.186;4.450;2023-02-28T00:44:09;1.90;37.80
26053;DHT22;13826;51.186;4.450;2023-02-28T00:46:34;1.80;39.90
26053;DHT22;13826;51.186;4.450;2023-02-28T00:49:00;1.80;42.50
26053;DHT22;13826;51.186;4.450;2023-02-28T00:51:26;1.70;46.30
26053;DHT22;13826;51.186;4.450;2023-02-28T00:53:51;1.70;48.40
26053;DHT22;13826;51.186;4.450;2023-02-28T00:56:17;1.70;50.90
26053;DHT22;13826;51.186;4.450;2023-02-28T00:58:42;1.70;49.50
26053;DHT22;13826;51.186;4.450;2023-02-28T01:01:08;1.70;51.70
26053;DHT22;13826;51.186;4.450;2023-02-28T01:03:34;1.70;51.30
26053;DHT22;13826;51.186;4.450;2023-02-28T01:05:59;1.70;52.10
26053;DHT22;13826;51.186;4.450;2023-02-28T01:08:25;1.70;52.20
26053;DHT22;13826;51.186;4.450;2023-02-28T01:10:52;1.80;51.30
26053;DHT22;13826;51.186;4.450;2023-02-28T01:13:17;1.80;48.90
26053;DHT22;13826;51.186;4.450;2023-02-28T01:15:45;1.70;49.70
26053;DHT22;13826;51.186;4.450;2023-02-28T01:18:11;1.80;50.20
26053;DHT22;13826;51.186;4.450;2023-02-28T01:20:37;1.80;50.00
26053;DHT22;13826;51.186;4.450;2023-02-28T01:23:03;1.80;48.50
26053;DHT22;13826;51.186;4.450;2023-02-28T01:25:28;1.90;46.00
26053;DHT22;13826;51.186;4.450;2023-02-28T01:27:54;1.90;44.70
26053;DHT22;13826;51.186;4.450;2023-02-28T01:30:19;1.80;45.90
26053;DHT22;13826;51.186;4.450;2023-02-28T01:32:45;1.70;48.60
26053;DHT22;13826;51.186;4.450;2023-02-28T01:35:11;1.60;53.60
26053;DHT22;13826;51.186;4.450;2023-02-28T01:37:36;1.50;56.10
26053;DHT22;13826;51.186;4.450;2023-02-28T01:40:02;1.60;57.00
26053;DHT22;13826;51.186;4.450;2023-02-28T01:42:27;1.70;53.70
26053;DHT22;13826;51.186;4.450;2023-02-28T01:47:19;1.80;48.70
26053;DHT22;13826;51.186;4.450;2023-02-28T01:49:45;1.80;46.10
26053;DHT22;13826;51.186;4.450;2023-02-28T01:52:10;1.70;45.80
26053;DHT22;13826;51.186;4.450;2023-02-28T01:54:40;1.60;50.40
26053;DHT22;13826;51.186;4.450;2023-02-28T01:57:09;1.70;50.10
26053;DHT22;13826;51.186;4.450;2023-02-28T01:59:52;1.70;46.70
26053;DHT22;13826;51.186;4.450;2023-02-28T02:02:20;1.80;46.10
26053;DHT22;13826;51.186;4.450;2023-02-28T02:04:50;1.70;44.40
26053;DHT22;13826;51.186;4.450;2023-02-28T02:07:18;1.60;48.10
26053;DHT22;13826;51.186;4.450;2023-02-28T02:09:44;1.60;52.70
26053;DHT22;13826;51.186;4.450;2023-02-28T02:12:18;1.70;51.60
26053;DHT22;13826;51.186;4.450;2023-02-28T02:15:09;1.50;54.00
26053;DHT22;13826;51.186;4.450;2023-02-28T02:17:38;1.40;59.00
26053;DHT22;13826;51.186;4.450;2023-02-28T02:25:43;1.50;61.30
26053;DHT22;13826;51.186;4.450;2023-02-28T02:38:30;1.50;59.30
26053;DHT22;13826;51.186;4.450;2023-02-28T02:41:12;1.50;59.00
26053;DHT22;13826;51.186;4.450;2023-02-28T02:46:16;1.40;62.10
26053;DHT22;13826;51.186;4.450;2023-02-28T02:48:42;1.40;64.40
26053;DHT22;13826;51.186;4.450;2023-02-28T02:51:16;1.40;62.90
26053;DHT22;13826;51.186;4.450;2023-02-28T02:53:50;1.30;64.20
26053;DHT22;13826;51.186;4.450;2023-02-28T02:56:17;1.20;67.30
26053;DHT22;13826;51.186;4.450;2023-02-28T02:58:44;1.30;66.40
26053;DHT22;13826;51.186;4.450;2023-02-28T03:01:11;1.40;63.60
26053;DHT22;13826;51.186;4.450;2023-02-28T03:03:38;1.30;65.60
26053;DHT22;13826;51.186;4.450;2023-02-28T03:06:03;1.30;66.80
26053;DHT22;13826;51.186;4.450;2023-02-28T03:08:34;1.20;69.90
26053;DHT22;13826;51.186;4.450;2023-02-28T03:11:01;1.30;67.20
26053;DHT22;13826;51.186;4.450;2023-02-28T03:13:45;1.20;66.90
26053;DHT22;13826;51.186;4.450;2023-02-28T03:18:46;1.30;68.70
26053;DHT22;13826;51.186;4.450;2023-02-28T03:23:59;1.30;67.90
26053;DHT22;13826;51.186;4.450;2023-02-28T03:26:27;1.20;70.60
26053;DHT22;13826;51.186;4.450;2023-02-28T03:28:56;1.30;69.50
26053;DHT22;13826;51.186;4.450;2023-02-28T03:31:37;1.40;66.80
26053;DHT22;13826;51.186;4.450;2023-02-28T03:34:06;1.50;65.70
26053;DHT22;13826;51.186;4.450;2023-02-28T03:36:41;1.40;61.30
26053;DHT22;13826;51.186;4.450;2023-02-28T03:39:14;1.40;66.60
26053;DHT22;13826;51.186;4.450;2023-02-28T03:41:45;1.30;67.70
26053;DHT22;13826;51.186;4.450;2023-02-28T03:44:20;1.40;65.70
26053;DHT22;13826;51.186;4.450;2023-02-28T03:46:55;1.50;63.90
26053;DHT22;13826;51.186;4.450;2023-02-28T03:49:30;1.50;63.30
26053;DHT22;13826;51.186;4.450;2023-02-28T03:51:58;1.40;66.40
26053;DHT22;13826;51.186;4.450;2023-02-28T03:54:27;1.50;67.10
26053;DHT22;13826;51.186;4.450;2023-02-28T03:56:57;1.60;64.80
26053;DHT22;13826;51.186;4.450;2023-02-28T03:59:28;1.70;62.50
26053;DHT22;13826;51.186;4.450;2023-02-28T04:01:53;1.60;60.80
26053;DHT22;13826;51.186;4.450;2023-02-28T04:04:20;1.80;60.90
26053;DHT22;13826;51.186;4.450;2023-02-28T04:06:46;1.90;56.90
26053;DHT22;13826;51.186;4.450;2023-02-28T04:09:14;2.00;53.90
26053;DHT22;13826;51.186;4.450;2023-02-28T04:11:41;1.90;52.70
26053;DHT22;13826;51.186;4.450;2023-02-28T04:14:08;1.80;56.30
26053;DHT22;13826;51.186;4.450;2023-02-28T04:16:35;1.80;58.20
26053;DHT22;13826;51.186;4.450;2023-02-28T04:19:02;1.80;58.00
26053;DHT22;13826;51.186;4.450;2023-02-28T04:21:29;1.80;56.20
26053;DHT22;13826;51.186;4.450;2023-02-28T04:23:55;1.70;59.20
26053;DHT22;13826;51.186;4.450;2023-02-28T04:26:20;1.70;62.80
26053;DHT22;13826;51.186;4.450;2023-02-28T04:28:46;1.90;60.70
26053;DHT22;13826;51.186;4.450;2023-02-28T04:31:11;2.00;56.10
26053;DHT22;13826;51.186;4.450;2023-02-28T04:33:37;2.10;54.20
26053;DHT22;13826;51.186;4.450;2023-02-28T04:36:04;2.10;48.30
26053;DHT22;13826;51.186;4.450;2023-02-28T04:38:31;2.10;48.10
26053;DHT22;13826;51.186;4.450;2023-02-28T04:40:58;2.10;47.90
26053;DHT22;13826;51.186;4.450;2023-02-28T04:43:23;2.10;48.60
26053;DHT22;13826;51.186;4.450;2023-02-28T04:45:49;2.20;49.60
26053;DHT22;13826;51.186;4.450;2023-02-28T04:48:14;2.30;45.40
26053;DHT22;13826;51.186;4.450;2023-02-28T04:50:40;2.30;43.00
26053;DHT22;13826;51.186;4.450;2023-02-28T04:53:05;2.30;40.30
26053;DHT22;13826;51.186;4.450;2023-02-28T04:55:31;2.30;41.30
26053;DHT22;13826;51.186;4.450;2023-02-28T04:57:56;2.40;42.90
26053;DHT22;13826;51.186;4.450;2023-02-28T05:00:23;2.60;39.40
26053;DHT22;13826;51.186;4.450;2023-02-28T05:02:48;2.60;36.10
26053;DHT22;13826;51.186;4.450;2023-02-28T05:05:14;2.40;37.20
26053;DHT22;13826;51.186;4.450;2023-02-28T05:07:43;2.20;42.20
26053;DHT22;13826;51.186;4.450;2023-02-28T05:10:10;2.40;45.90
26053;DHT22;13826;51.186;4.450;2023-02-28T05:12:35;2.40;39.50
26053;DHT22;13826;51.186;4.450;2023-02-28T05:15:01;2.40;39.50
26053;DHT22;13826;51.186;4.450;2023-02-28T05:17:27;2.30;40.90
26053;DHT22;13826;51.186;4.450;2023-02-28T05:19:53;2.20;46.20
26053;DHT22;13826;51.186;4.450;2023-02-28T05:22:19;2.30;43.80
26053;DHT22;13826;51.186;4.450;2023-02-28T05:24:44;2.20;44.30
26053;DHT22;13826;51.186;4.450;2023-02-28T05:27:10;2.30;44.10
26053;DHT22;13826;51.186;4.450;2023-02-28T05:29:35;2.30;44.00
26053;DHT22;13826;51.186;4.450;2023-02-28T05:32:10;2.30;41.50
26053;DHT22;13826;51.186;4.450;2023-02-28T05:34:39;2.30;42.60
26053;DHT22;13826;51.186;4.450;2023-02-28T05:37:05;2.30;41.40
26053;DHT22;13826;51.186;4.450;2023-02-28T05:39:30;2.30;41.70
26053;DHT22;13826;51.186;4.450;2023-02-28T05:41:56;2.30;40.00
26053;DHT22;13826;51.186;4.450;2023-02-28T05:44:21;2.30;42.20
26053;DHT22;13826;51.186;4.450;2023-02-28T05:46:47;2.40;42.50
26053;DHT22;13826;51.186;4.450;2023-02-28T05:49:13;2.50;41.10
26053;DHT22;13826;51.186;4.450;2023-02-28T05:51:38;2.50;36.50
26053;DHT22;13826;51.186;4.450;2023-02-28T05:54:05;2.60;35.80
26053;DHT22;13826;51.186;4.450;2023-02-28T05:56:31;2.50;30.40
26053;DHT22;13826;51.186;4.450;2023-02-28T05:58:57;2.40;34.20
26053;DHT22;13826;51.186;4.450;2023-02-28T06:03:54;2.30;33.90
26053;DHT22;13826;51.186;4.450;2023-02-28T06:06:19;2.50;33.20
26053;DHT22;13826;51.186;4.450;2023-02-28T06:08:48;2.60;29.70
26053;DHT22;13826;51.186;4.450;2023-02-28T06:11:22;2.50;27.30
26053;DHT22;13826;51.186;4.450;2023-02-28T06:14:00;2.50;27.30
26053;DHT22;13826;51.186;4.450;2023-02-28T06:16:26;2.40;28.10
26053;DHT22;13826;51.186;4.450;2023-02-28T06:18:52;2.50;32.60
26053;DHT22;13826;51.186;4.450;2023-02-28T06:21:23;2.50;29.00
26053;DHT22;13826;51.186;4.450;2023-02-28T06:23:49;2.50;30.10
26053;DHT22;13826;51.186;4.450;2023-02-28T06:26:14;2.70;26.30
26053;DHT22;13826;51.186;4.450;2023-02-28T06:28:40;2.80;23.60
26053;DHT22;13826;51.186;4.450;2023-02-28T06:31:09;2.90;21.90
26053;DHT22;13826;51.186;4.450;2023-02-28T06:33:35;2.70;20.70
26053;DHT22;13826;51.186;4.450;2023-02-28T06:36:01;2.60;22.50
26053;DHT22;13826;51.186;4.450;2023-02-28T06:38:26;2.60;27.60
26053;DHT22;13826;51.186;4.450;2023-02-28T06:40:53;2.60;30.30
26053;DHT22;13826;51.186;4.450;2023-02-28T06:43:18;2.70;31.20
26053;DHT22;13826;51.186;4.450;2023-02-28T06:45:44;2.80;25.50
26053;DHT22;13826;51.186;4.450;2023-02-28T06:48:09;2.80;25.50
26053;DHT22;13826;51.186;4.450;2023-02-28T06:50:35;2.80;27.00
26053;DHT22;13826;51.186;4.450;2023-02-28T06:53:01;2.80;26.40
26053;DHT22;13826;51.186;4.450;2023-02-28T06:55:27;2.90;24.30
26053;DHT22;13826;51.186;4.450;2023-02-28T06:57:52;2.80;23.40
26053;DHT22;13826;51.186;4.450;2023-02-28T07:00:20;2.70;26.40
26053;DHT22;13826;51.186;4.450;2023-02-28T07:02:45;2.80;26.30
26053;DHT22;13826;51.186;4.450;2023-02-28T07:05:12;2.90;23.80
26053;DHT22;13826;51.186;4.450;2023-02-28T07:07:38;2.80;21.50
26053;DHT22;13826;51.186;4.450;2023-02-28T07:10:06;2.90;25.50
26053;DHT22;13826;51.186;4.450;2023-02-28T07:12:31;3.20;21.10
26053;DHT22;13826;51.186;4.450;2023-02-28T07:14:57;3.30;12.20
26053;DHT22;13826;51.186;4.450;2023-02-28T07:17:22;3.40;7.40
26053;DHT22;13826;51.186;4.450;2023-02-28T07:19:48;3.40;7.10
26053;DHT22;13826;51.186;4.450;2023-02-28T07:22:14;3.40;3.80
26053;DHT22;13826;51.186;4.450;2023-02-28T07:24:39;3.30;2.30
26053;DHT22;13826;51.186;4.450;2023-02-28T07:27:05;3.20;5.20
26053;DHT22;13826;51.186;4.450;2023-02-28T07:29:30;3.30;4.20
26053;DHT22;13826;51.186;4.450;2023-02-28T07:31:56;3.40;3.10
26053;DHT22;13826;51.186;4.450;2023-02-28T07:34:21;3.50;1.00
26053;DHT22;13826;51.186;4.450;2023-02-28T07:36:47;3.60;1.00
26053;DHT22;13826;51.186;4.450;2023-02-28T07:39:13;3.80;1.00
26053;DHT22;13826;51.186;4.450;2023-02-28T07:41:38;3.70;1.00
26053;DHT22;13826;51.186;4.450;2023-02-28T07:44:11;3.50;1.00
26053;DHT22;13826;51.186;4.450;2023-02-28T07:46:37;3.60;1.00
26053;DHT22;13826;51.186;4.450;2023-02-28T07:49:03;4.00;1.00
26053;DHT22;13826;51.186;4.450;2023-02-28T07:51:29;4.10;1.00
26053;DHT22;13826;51.186;4.450;2023-02-28T07:53:55;4.20;1.00
26053;DHT22;13826;51.186;4.450;2023-02-28T07:56:21;4.10;1.00
26053;DHT22;13826;51.186;4.450;2023-02-28T07:58:46;4.10;1.00
26053;DHT22;13826;51.186;4.450;2023-02-28T08:01:12;4.20;1.00
26053;DHT22;13826;51.186;4.450;2023-02-28T08:03:38;4.20;1.00
26053;DHT22;13826;51.186;4.450;2023-02-28T08:06:05;4.20;1.00
26053;DHT22;13826;51.186;4.450;2023-02-28T08:08:31;4.50;1.00
26053;DHT22;13826;51.186;4.450;2023-02-28T08:11:01;4.50;1.00
26053;DHT22;13826;51.186;4.450;2023-02-28T08:13:27;4.70;1.00
26053;DHT22;13826;51.186;4.450;2023-02-28T08:15:56;4.60;1.00
26053;DHT22;13826;51.186;4.450;2023-02-28T08:18:22;4.60;1.00
26053;DHT22;13826;51.186;4.450;2023-02-28T08:20:47;4.70;1.00
26053;DHT22;13826;51.186;4.450;2023-02-28T08:23:13;5.00;1.00
26053;DHT22;13826;51.186;4.450;2023-02-28T08:25:38;5.20;1.00
26053;DHT22;13826;51.186;4.450;2023-02-28T08:28:04;5.30;1.00
26053;DHT22;13826;51.186;4.450;2023-02-28T08:30:29;5.10;99.90
26053;DHT22;13826;51.186;4.450;2023-02-28T08:32:55;4.90;99.90
26053;DHT22;13826;51.186;4.450;2023-02-28T08:35:21;5.00;99.90
26053;DHT22;13826;51.186;4.450;2023-02-28T08:37:49;5.00;99.90
26053;DHT22;13826;51.186;4.450;2023-02-28T08:40:15;5.00;99.90
26053;DHT22;13826;51.186;4.450;2023-02-28T08:42:46;5.00;99.90
26053;DHT22;13826;51.186;4.450;2023-02-28T08:45:13;5.00;99.90
26053;DHT22;13826;51.186;4.450;2023-02-28T08:47:38;4.90;99.90
26053;DHT22;13826;51.186;4.450;2023-02-28T08:50:04;4.70;99.90
26053;DHT22;13826;51.186;4.450;2023-02-28T08:52:30;4.70;99.90
26053;DHT22;13826;51.186;4.450;2023-02-28T08:54:55;4.80;99.90
26053;DHT22;13826;51.186;4.450;2023-02-28T08:57:21;5.10;99.90
26053;DHT22;13826;51.186;4.450;2023-02-28T08:59:47;5.50;1.00
26053;DHT22;13826;51.186;4.450;2023-02-28T09:02:13;5.50;99.90
26053;DHT22;13826;51.186;4.450;2023-02-28T09:04:39;6.00;99.90
26053;DHT22;13826;51.186;4.450;2023-02-28T09:07:05;6.90;1.00
26053;DHT22;13826;51.186;4.450;2023-02-28T09:09:30;7.30;1.00
26053;DHT22;13826;51.186;4.450;2023-02-28T09:11:56;7.90;94.40
26053;DHT22;13826;51.186;4.450;2023-02-28T09:14:24;7.40;5.30
26053;DHT22;13826;51.186;4.450;2023-02-28T09:16:49;6.80;99.90
26053;DHT22;13826;51.186;4.450;2023-02-28T09:19:15;6.90;99.90
26053;DHT22;13826;51.186;4.450;2023-02-28T09:21:40;7.50;1.00
26053;DHT22;13826;51.186;4.450;2023-02-28T09:24:06;6.90;99.90
26053;DHT22;13826;51.186;4.450;2023-02-28T09:26:32;6.50;99.90
26053;DHT22;13826;51.186;4.450;2023-02-28T09:28:57;7.20;95.50
26053;DHT22;13826;51.186;4.450;2023-02-28T09:31:27;8.50;1.00
26053;DHT22;13826;51.186;4.450;2023-02-28T09:33:54;10.50;99.90
26053;DHT22;13826;51.186;4.450;2023-02-28T09:36:20;11.90;33.40
26053;DHT22;13826;51.186;4.450;2023-02-28T09:38:46;12.70;1.00
26053;DHT22;13826;51.186;4.450;2023-02-28T09:43:41;12.40;1.00
26053;DHT22;13826;51.186;4.450;2023-02-28T09:48:46;11.60;1.00
26053;DHT22;13826;51.186;4.450;2023-02-28T09:53:57;9.70;1.00
26053;DHT22;13826;51.186;4.450;2023-02-28T09:56:33;10.10;1.00
26053;DHT22;13826;51.186;4.450;2023-02-28T09:59:02;10.20;1.00
26053;DHT22;13826;51.186;4.450;2023-02-28T10:01:39;8.70;1.00
26053;DHT22;13826;51.186;4.450;2023-02-28T10:06:47;9.70;1.00
26053;DHT22;13826;51.186;4.450;2023-02-28T10:09:15;10.30;1.00
26053;DHT22;13826;51.186;4.450;2023-02-28T10:11:42;11.30;1.00
26053;DHT22;13826;51.186;4.450;2023-02-28T10:14:16;12.00;1.00
26053;DHT22;13826;51.186;4.450;2023-02-28T10:16:56;12.00;1.00
26053;DHT22;13826;51.186;4.450;2023-02-28T10:20:24;11.30;1.00
26053;DHT22;13826;51.186;4.450;2023-02-28T10:22:29;11.80;1.00
26053;DHT22;13826;51.186;4.450;2023-02-28T10:24:58;10.80;1.00
26053;DHT22;13826;51.186;4.450;2023-02-28T10:27:31;11.70;1.00
26053;DHT22;13826;51.186;4.450;2023-02-28T10:30:00;11.20;1.00
26053;DHT22;13826;51.186;4.450;2023-02-28T10:35:15;11.00;1.00
26053;DHT22;13826;51.186;4.450;2023-02-28T10:37:42;10.50;1.00
26053;DHT22;13826;51.186;4.450;2023-02-28T10:40:30;11.20;1.00
26053;DHT22;13826;51.186;4.450;2023-02-28T10:45:22;11.30;1.00
26053;DHT22;13826;51.186;4.450;2023-02-28T10:53:10;13.40;1.00
26053;DHT22;13826;51.186;4.450;2023-02-28T10:55:42;13.50;1.00
26053;DHT22;13826;51.186;4.450;2023-02-28T10:58:20;12.90;1.00
26053;DHT22;13826;51.186;4.450;2023-02-28T11:00:46;13.00;1.00
26053;DHT22;13826;51.186;4.450;2023-02-28T11:05:57;12.30;1.00
26053;DHT22;13826;51.186;4.450;2023-02-28T11:08:22;13.20;1.00
26053;DHT22;13826;51.186;4.450;2023-02-28T11:10:58;13.10;1.00
26053;DHT22;13826;51.186;4.450;2023-02-28T11:13:30;13.60;1.00
26053;DHT22;13826;51.186;4.450;2023-02-28T11:15:58;13.90;1.00
26053;DHT22;13826;51.186;4.450;2023-02-28T11:18:26;13.50;1.00
26053;DHT22;13826;51.186;4.450;2023-02-28T11:20:53;13.90;1.00
26053;DHT22;13826;51.186;4.450;2023-02-28T11:23:19;13.50;1.00
26053;DHT22;13826;51.186;4.450;2023-02-28T11:25:47;13.90;1.00
26053;DHT22;13826;51.186;4.450;2023-02-28T11:33:53;11.70;1.00
26053;DHT22;13826;51.186;4.450;2023-02-28T11:38:44;11.30;1.00
26053;DHT22;13826;51.186;4.450;2023-02-28T11:41:17;11.50;1.00
26053;DHT22;13826;51.186;4.450;2023-02-28T11:43:58;11.20;1.00
26053;DHT22;13826;51.186;4.450;2023-02-28T11:51:31;12.60;1.00
26053;DHT22;13826;51.186;4.450;2023-02-28T11:59:04;12.40;1.00
26053;DHT22;13826;51.186;4.450;2023-02-28T12:09:13;12.60;1.00
26053;DHT22;13826;51.186;4.450;2023-02-28T12:12:04;12.80;1.00
26053;DHT22;13826;51.186;4.450;2023-02-28T12:15:35;11.70;1.00
26053;DHT22;13826;51.186;4.450;2023-02-28T12:25:13;12.50;1.00
26053;DHT22;13826;51.186;4.450;2023-02-28T12:27:38;11.90;1.00
26053;DHT22;13826;51.186;4.450;2023-02-28T12:30:19;12.10;1.00
26053;DHT22;13826;51.186;4.450;2023-02-28T12:32:48;11.40;1.00
26053;DHT22;13826;51.186;4.450;2023-02-28T12:35:33;11.30;1.00
26053;DHT22;13826;51.186;4.450;2023-02-28T12:40:47;11.60;1.00
26053;DHT22;13826;51.186;4.450;2023-02-28T12:43:15;11.70;1.00
26053;DHT22;13826;51.186;4.450;2023-02-28T12:45:49;10.20;1.00
26053;DHT22;13826;51.186;4.450;2023-02-28T12:48:27;9.00;1.00
26053;DHT22;13826;51.186;4.450;2023-02-28T12:50:54;8.50;1.00
26053;DHT22;13826;51.186;4.450;2023-02-28T12:53:26;8.40;1.00
26053;DHT22;13826;51.186;4.450;2023-02-28T13:01:05;7.80;1.00
26053;DHT22;13826;51.186;4.450;2023-02-28T13:06:05;7.30;1.00
26053;DHT22;13826;51.186;4.450;2023-02-28T13:11:05;6.90;1.00
26053;DHT22;13826;51.186;4.450;2023-02-28T13:13:31;7.00;1.00
26053;DHT22;13826;51.186;4.450;2023-02-28T13:16:04;6.90;1.00
26053;DHT22;13826;51.186;4.450;2023-02-28T13:18:37;6.80;1.00
26053;DHT22;13826;51.186;4.450;2023-02-28T13:21:08;6.80;1.00
26053;DHT22;13826;51.186;4.450;2023-02-28T13:26:09;6.70;1.00
26053;DHT22;13826;51.186;4.450;2023-02-28T13:31:19;6.60;1.00
26053;DHT22;13826;51.186;4.450;2023-02-28T13:38:42;6.70;1.00
26053;DHT22;13826;51.186;4.450;2023-02-28T13:44:04;6.40;18.90
26053;DHT22;13826;51.186;4.450;2023-02-28T13:46:31;6.50;22.70
26053;DHT22;13826;51.186;4.450;2023-02-28T13:49:16;6.70;56.00
26053;DHT22;13826;51.186;4.450;2023-02-28T13:51:46;6.80;12.40
26053;DHT22;13826;51.186;4.450;2023-02-28T14:02:33;6.50;42.10
26053;DHT22;13826;51.186;4.450;2023-02-28T14:05:04;6.40;7.60
26053;DHT22;13826;51.186;4.450;2023-02-28T14:07:38;6.40;23.20
26053;DHT22;13826;51.186;4.450;2023-02-28T14:10:06;6.30;29.60
26053;DHT22;13826;51.186;4.450;2023-02-28T14:15:27;6.50;86.70
26053;DHT22;13826;51.186;4.450;2023-02-28T14:17:54;6.60;49.40
26053;DHT22;13826;51.186;4.450;2023-02-28T14:20:21;6.60;27.70
26053;DHT22;13826;51.186;4.450;2023-02-28T14:22:53;6.60;72.70
26053;DHT22;13826;51.186;4.450;2023-02-28T14:38:27;6.50;99.90
26053;DHT22;13826;51.186;4.450;2023-02-28T14:40:54;6.30;57.20
26053;DHT22;13826;51.186;4.450;2023-02-28T14:43:25;6.30;99.90
26053;DHT22;13826;51.186;4.450;2023-02-28T14:45:58;6.30;99.90
26053;DHT22;13826;51.186;4.450;2023-02-28T14:48:24;6.30;99.90
26053;DHT22;13826;51.186;4.450;2023-02-28T14:50:52;6.40;99.90
26053;DHT22;13826;51.186;4.450;2023-02-28T14:53:18;6.50;99.90
26053;DHT22;13826;51.186;4.450;2023-02-28T14:55:45;6.30;99.90
26053;DHT22;13826;51.186;4.450;2023-02-28T15:00:47;6.30;99.90
26053;DHT22;13826;51.186;4.450;2023-02-28T15:03:24;6.30;99.90
26053;DHT22;13826;51.186;4.450;2023-02-28T15:05:57;6.30;99.90
26053;DHT22;13826;51.186;4.450;2023-02-28T15:08:23;6.30;99.90
26053;DHT22;13826;51.186;4.450;2023-02-28T15:10:53;6.40;99.90
26053;DHT22;13826;51.186;4.450;2023-02-28T15:13:20;6.20;99.90
26053;DHT22;13826;51.186;4.450;2023-02-28T15:15:47;6.20;99.90
26053;DHT22;13826;51.186;4.450;2023-02-28T15:20:45;6.20;99.90
26053;DHT22;13826;51.186;4.450;2023-02-28T15:23:10;6.10;99.90
26053;DHT22;13826;51.186;4.450;2023-02-28T15:25:36;6.00;99.90
26053;DHT22;13826;51.186;4.450;2023-02-28T15:28:02;6.10;99.90
26053;DHT22;13826;51.186;4.450;2023-02-28T15:30:28;6.20;99.90
26053;DHT22;13826;51.186;4.450;2023-02-28T15:33:02;6.20;99.90
26053;DHT22;13826;51.186;4.450;2023-02-28T15:35:29;6.10;99.90
26053;DHT22;13826;51.186;4.450;2023-02-28T15:37:56;6.10;99.90
26053;DHT22;13826;51.186;4.450;2023-02-28T15:41:23;6.00;99.90
26053;DHT22;13826;51.186;4.450;2023-02-28T15:43:23;5.90;99.90
26053;DHT22;13826;51.186;4.450;2023-02-28T15:45:50;6.00;99.90
26053;DHT22;13826;51.186;4.450;2023-02-28T15:50:42;6.00;99.90
26053;DHT22;13826;51.186;4.450;2023-02-28T15:53:12;6.20;99.90
26053;DHT22;13826;51.186;4.450;2023-02-28T15:55:38;6.20;99.90
26053;DHT22;13826;51.186;4.450;2023-02-28T15:58:05;6.10;99.90
26053;DHT22;13826;51.186;4.450;2023-02-28T16:00:31;6.10;99.90
26053;DHT22;13826;51.186;4.450;2023-02-28T16:02:58;6.00;99.90
26053;DHT22;13826;51.186;4.450;2023-02-28T16:05:27;5.90;99.90
26053;DHT22;13826;51.186;4.450;2023-02-28T16:07:56;5.90;99.90
26053;DHT22;13826;51.186;4.450;2023-02-28T16:10:22;5.90;99.90
26053;DHT22;13826;51.186;4.450;2023-02-28T16:12:52;5.90;99.90
26053;DHT22;13826;51.186;4.450;2023-02-28T16:15:19;5.80;99.90
26053;DHT22;13826;51.186;4.450;2023-02-28T16:17:45;5.80;99.90
26053;DHT22;13826;51.186;4.450;2023-02-28T16:20:12;5.80;99.90
26053;DHT22;13826;51.186;4.450;2023-02-28T16:22:38;5.80;99.90
26053;DHT22;13826;51.186;4.450;2023-02-28T16:25:04;5.80;99.90
26053;DHT22;13826;51.186;4.450;2023-02-28T16:27:35;5.80;99.90
26053;DHT22;13826;51.186;4.450;2023-02-28T16:30:02;5.80;99.90
26053;DHT22;13826;51.186;4.450;2023-02-28T16:32:28;5.80;99.90
26053;DHT22;13826;51.186;4.450;2023-02-28T16:34:54;5.80;99.90
26053;DHT22;13826;51.186;4.450;2023-02-28T16:37:19;5.70;99.90
26053;DHT22;13826;51.186;4.450;2023-02-28T16:39:45;5.70;99.90
26053;DHT22;13826;51.186;4.450;2023-02-28T16:42:15;5.60;99.90
26053;DHT22;13826;51.186;4.450;2023-02-28T16:44:41;5.60;99.90
26053;DHT22;13826;51.186;4.450;2023-02-28T16:47:08;5.50;99.90
26053;DHT22;13826;51.186;4.450;2023-02-28T16:49:34;5.50;1.00
26053;DHT22;13826;51.186;4.450;2023-02-28T16:51:59;5.50;1.00
26053;DHT22;13826;51.186;4.450;2023-02-28T16:54:25;5.40;1.00
26053;DHT22;13826;51.186;4.450;2023-02-28T16:56:50;5.40;1.00
26053;DHT22;13826;51.186;4.450;2023-02-28T16:59:18;5.40;1.00
26053;DHT22;13826;51.186;4.450;2023-02-28T17:01:44;5.30;1.00
26053;DHT22;13826;51.186;4.450;2023-02-28T17:04:10;5.20;1.00
26053;DHT22;13826;51.186;4.450;2023-02-28T17:06:36;5.20;1.00
26053;DHT22;13826;51.186;4.450;2023-02-28T17:09:02;5.20;1.00
26053;DHT22;13826;51.186;4.450;2023-02-28T17:11:28;5.10;1.00
26053;DHT22;13826;51.186;4.450;2023-02-28T17:13:53;5.10;1.00
26053;DHT22;13826;51.186;4.450;2023-02-28T17:16:21;5.00;1.00
26053;DHT22;13826;51.186;4.450;2023-02-28T17:18:48;5.00;82.90
26053;DHT22;13826;51.186;4.450;2023-02-28T17:21:14;4.90;99.90
26053;DHT22;13826;51.186;4.450;2023-02-28T17:23:40;4.90;99.90
26053;DHT22;13826;51.186;4.450;2023-02-28T17:26:06;4.80;99.90
26053;DHT22;13826;51.186;4.450;2023-02-28T17:28:32;4.80;99.90
26053;DHT22;13826;51.186;4.450;2023-02-28T17:30:57;4.80;99.90
26053;DHT22;13826;51.186;4.450;2023-02-28T17:33:23;4.80;99.90
26053;DHT22;13826;51.186;4.450;2023-02-28T17:35:48;4.70;99.90
26053;DHT22;13826;51.186;4.450;2023-02-28T17:38:18;4.70;99.90
26053;DHT22;13826;51.186;4.450;2023-02-28T17:40:44;4.70;99.90
26053;DHT22;13826;51.186;4.450;2023-02-28T17:43:10;4.60;99.90
26053;DHT22;13826;51.186;4.450;2023-02-28T17:45:35;4.60;1.00
26053;DHT22;13826;51.186;4.450;2023-02-28T17:48:01;4.60;1.00
26053;DHT22;13826;51.186;4.450;2023-02-28T17:50:27;4.50;99.90
26053;DHT22;13826;51.186;4.450;2023-02-28T17:52:52;4.50;1.00
26053;DHT22;13826;51.186;4.450;2023-02-28T17:55:18;4.50;1.00
26053;DHT22;13826;51.186;4.450;2023-02-28T17:57:47;4.50;1.00
26053;DHT22;13826;51.186;4.450;2023-02-28T18:00:15;4.40;1.00
26053;DHT22;13826;51.186;4.450;2023-02-28T18:02:42;4.40;1.00
26053;DHT22;13826;51.186;4.450;2023-02-28T18:05:08;4.40;1.00
26053;DHT22;13826;51.186;4.450;2023-02-28T18:07:36;4.40;83.60
26053;DHT22;13826;51.186;4.450;2023-02-28T18:10:01;4.50;88.90
26053;DHT22;13826;51.186;4.450;2023-02-28T18:12:28;4.60;99.90
26053;DHT22;13826;51.186;4.450;2023-02-28T18:14:54;4.60;1.00
26053;DHT22;13826;51.186;4.450;2023-02-28T18:17:19;4.60;99.90